Flight Track Log - Related Links

Times and Time Zones

All times are in EDT time to prevent confusion due to time zone crossing. See the N53NW flight status page for this flight to view local times or setup timezone preferences in your user account.

Time Position Orientation Groundspeed Altitude Reporting Facility
EDT Latitude Longitude Course Direction KTS MPH feet Rate Location/Type
Thu 06:03:21 PM 32.6500 -97.0833 180° South 147 169 1,000  Level Dallas / Fort Worth TRACON
Thu 06:03:57 PM 32.6167 -97.0833 180° South 218 251 2,200 1,608 Climbing Dallas / Fort Worth TRACON
Thu 06:04:58 PM 32.5667 -97.1000 196° South 219 252 3,600 1,565 Climbing Dallas / Fort Worth TRACON
Thu 06:05:52 PM 32.5500 -97.0333 107° East 230 265 5,200 2,150 Climbing Dallas / Fort Worth TRACON
Thu 06:06:58 PM 32.5486 -96.9550 91° East 268 308 7,900 2,810 Climbing Fort Worth Center
Thu 06:07:58 PM 32.5567 -96.8589 84° East 274 315 11,100 2,900 Climbing Fort Worth Center
Thu 06:08:58 PM 32.6106 -96.7969 44° Northeast 251 289 13,700 2,150 Climbing Fort Worth Center
Thu 06:09:58 PM 32.6750 -96.7347 39° Northeast 262 302 15,400 1,750 Climbing Fort Worth Center
Thu 06:10:58 PM 32.7456 -96.6625 41° Northeast 293 337 17,200 1,750 Climbing Fort Worth Center
Thu 06:11:58 PM 32.8181 -96.5928 39° Northeast 317 365 18,900 1,750 Climbing Fort Worth Center
Thu 06:12:58 PM 32.8950 -96.5203 38° Northeast 336 387 20,700 1,800 Climbing Fort Worth Center
Thu 06:13:58 PM 32.9717 -96.4428 40° Northeast 348 400 22,500 1,800 Climbing Fort Worth Center
Thu 06:14:58 PM 33.0483 -96.3650 40° Northeast 348 400 24,300 1,700 Climbing Fort Worth Center
Thu 06:15:58 PM 33.1078 -96.2628 55° Northeast 359 413 25,900 1,550 Climbing Fort Worth Center
Thu 06:16:58 PM 33.1419 -96.1308 73° East 374 430 27,400 1,500 Climbing Fort Worth Center
Thu 06:17:58 PM 33.1803 -96.0036 70° East 387 445 28,900 1,350 Climbing Fort Worth Center
Thu 06:18:58 PM 33.2183 -95.8689 71° East 409 471 30,100 1,050 Climbing Fort Worth Center
Thu 06:19:58 PM 33.2583 -95.7317 71° East 423 487 31,000 450 Climbing Fort Worth Center
Thu 06:20:58 PM 33.2983 -95.5992 70° East 444 511 31,000  Level Fort Worth Center
Thu 06:21:58 PM 33.3458 -95.4317 71° East 469 540 31,000  Level Fort Worth Center
Thu 06:22:58 PM 33.3914 -95.2739 71° East 483 556 31,000  Level Fort Worth Center
Thu 06:23:58 PM 33.4344 -95.1158 72° East 488 562 31,000  Level Fort Worth Center
Thu 06:24:58 PM 33.4817 -94.9603 70° East 488 562 31,000  Level Fort Worth Center
Thu 06:25:58 PM 33.5267 -94.8069 71° East 488 562 31,000  Level Fort Worth Center
Thu 06:26:58 PM 33.5711 -94.6511 71° East 488 562 31,000  Level Fort Worth Center
Thu 06:27:58 PM 33.6156 -94.4953 71° East 488 562 31,000  Level Fort Worth Center
Thu 06:28:58 PM 33.6600 -94.3414 71° East 488 562 31,000  Level Fort Worth Center
Thu 06:29:58 PM 33.7083 -94.1825 70° East 488 562 31,000  Level Fort Worth Center
Thu 06:31:44 PM 33.8203 -93.9625 58° Northeast 479 551 31,000  Level Memphis Center
Thu 06:32:44 PM 33.8956 -93.8106 59° Northeast 479 551 31,000  Level Memphis Center
Thu 06:33:44 PM 33.9661 -93.6656 60° Northeast 479 551 31,000  Level Memphis Center
Thu 06:34:44 PM 34.0344 -93.5253 60° Northeast 479 551 31,000  Level Memphis Center
Thu 06:35:44 PM 34.1047 -93.3825 59° Northeast 479 551 31,000 -100 Level Memphis Center
Thu 06:36:44 PM 34.1750 -93.2367 60° Northeast 479 551 30,800 -1,100 Descending Memphis Center
Thu 06:37:44 PM 34.2428 -93.0983 59° Northeast 479 551 28,800 -1,900 Descending Memphis Center
Thu 06:38:44 PM 34.3083 -92.9622 60° Northeast 473 544 27,000 -900 Descending Memphis Center
Thu 06:39:44 PM 34.3761 -92.8158 61° Northeast 462 532 27,000 -550 Level Memphis Center
Thu 06:40:44 PM 34.4369 -92.6867 60° Northeast 448 516 25,900 -1,761 Descending Memphis Center
Thu 06:41:33 PM 34.4867 -92.5872 59° Northeast 439 505 23,800 -2,500 Descending Memphis Center
Thu 06:41:44 PM 34.4978 -92.5597 64° Northeast 437 503 23,400 -2,451 Descending Memphis Center
Thu 06:42:44 PM 34.5539 -92.4425 60° Northeast 417 480 20,900 -2,541 Descending Memphis Center
Thu 06:43:35 PM 34.5950 -92.3553 60° Northeast 377 434 18,700 -2,500 Descending Memphis Center
Thu 06:43:44 PM 34.6058 -92.3328 60° Northeast 390 449 18,400 -2,459 Descending Memphis Center
Thu 06:44:36 PM 34.6489 -92.2406 60° Northeast 361 415 16,200 -2,400 Descending Memphis Center
Thu 06:44:44 PM 34.6553 -92.2281 58° Northeast 370 426 16,000 -2,500 Descending Memphis Center
Thu 06:45:36 PM 34.7044 -92.1583 49° Northeast 339 390 13,700 -2,600 Descending Memphis Center
Thu 06:45:44 PM 34.7214 -92.1461 31° Northeast 348 400 13,400 -2,459 Descending Memphis Center
Thu 06:46:37 PM 34.7803 -92.0967 35° Northeast 298 343 11,200 -2,500 Descending Memphis Center
Thu 06:46:44 PM 34.7911 -92.0867 37° Northeast 314 361 10,900 -2,507 Descending Memphis Center
Thu 06:47:44 PM 34.8583 -92.0350 32° Northeast 301 346 8,400 -2,300 Descending Memphis Center
Thu 06:48:44 PM 34.9197 -91.9831 35° Northeast 278 320 6,300 -2,000 Descending Memphis Center
Thu 06:49:44 PM 34.9744 -91.9386 34° Northeast 259 298 4,400 -1,243 Descending Memphis Center
Thu 06:50:35 PM 35.0125 -91.9036 37° Northeast 225 259 4,000 -600 Descending Memphis Center
Thu 06:50:44 PM 35.0272 -91.8939 28° Northeast 238 274 3,800 -1,565 Descending Memphis Center
Thu 06:51:44 PM 35.0778 -91.8517 34° Northeast 233 268 2,200 -800 Descending Memphis Center
Thu 06:52:44 PM 35.1261 -91.8094 36° Northeast 233 268 2,200  Level Memphis Center
Thu 06:57:00 PM 35.2106 -91.7375 36° Northeast  Level Estimated
Thu 07:04:00 PM 35.2106 -91.7375 213° Southwest  Level Estimated

Login

Don't have an account? Register now (free) for customized features, flight alerts, and more!